Time;durP1;ratioP1;P1;durP2;ratioP2;P2;SDS_P1;SDS_P2;PMS_P1;PMS_P2;Temp;Humidity;BMP_temperature;BMP_pressure;BME280_temperature;BME280_humidity;BME280_pressure;Samples;Min_cycle;Max_cycle;Signal;HPM_P1;HPM_P2
2022/06/20 00:00:47;;;;;;;6.23;1.83;;;14.20;99.90;;;;;;4933024;29;20523;-82
2022/06/20 00:03:21;;;;;;;4.60;1.60;;;14.10;99.90;;;;;;4932066;29;20194;-81
2022/06/20 00:05:48;;;;;;;5.53;1.50;;;14.10;99.90;;;;;;4952184;29;20613;-84
2022/06/20 00:08:16;;;;;;;4.20;1.50;;;14.20;99.90;;;;;;4951709;29;20317;-86
2022/06/20 00:10:44;;;;;;;7.63;1.90;;;14.20;99.90;;;;;;4952451;29;20201;-78
2022/06/20 00:13:18;;;;;;;6.63;1.50;;;14.20;99.90;;;;;;4942172;29;20235;-86
2022/06/20 00:15:48;;;;;;;6.50;1.85;;;14.10;99.90;;;;;;4932263;29;20221;-86
2022/06/20 00:18:14;;;;;;;7.93;2.27;;;14.20;99.90;;;;;;4930139;29;20229;-84
2022/06/20 00:20:41;;;;;;;6.05;1.63;;;14.10;99.90;;;;;;4941657;29;20296;-83
2022/06/20 00:23:09;;;;;;;5.70;2.03;;;14.10;99.90;;;;;;4953999;29;20677;-85
2022/06/20 00:25:36;;;;;;;10.32;2.10;;;14.10;99.90;;;;;;4953861;29;20205;-79
2022/06/20 00:28:04;;;;;;;4.15;1.80;;;14.20;99.90;;;;;;4952655;29;20206;-81
2022/06/20 00:30:32;;;;;;;5.63;1.47;;;14.10;99.90;;;;;;4953092;29;20213;-86
2022/06/20 00:32:59;;;;;;;5.32;1.75;;;14.10;99.90;;;;;;4953519;29;20224;-84
2022/06/20 00:35:26;;;;;;;5.27;2.00;;;14.10;99.90;;;;;;4953274;29;20209;-82
2022/06/20 00:37:56;;;;;;;4.70;1.60;;;14.20;99.90;;;;;;4953079;29;20220;-85
2022/06/20 00:40:29;;;;;;;8.90;2.20;;;14.10;99.90;;;;;;4952780;29;20217;-84
2022/06/20 00:42:56;;;;;;;5.82;1.88;;;14.10;99.90;;;;;;4951148;29;20197;-83
2022/06/20 00:45:25;;;;;;;6.03;1.60;;;14.10;99.90;;;;;;4954087;29;20205;-85
2022/06/20 00:47:57;;;;;;;5.95;1.70;;;14.10;99.90;;;;;;4945939;29;20206;-86
2022/06/20 00:50:29;;;;;;;6.00;2.08;;;14.10;99.90;;;;;;4934551;29;20205;-80
2022/06/20 00:53:00;;;;;;;5.03;1.58;;;14.10;99.90;;;;;;4933487;29;20329;-87
2022/06/20 00:55:32;;;;;;;5.72;1.83;;;14.10;99.90;;;;;;4934043;29;20562;-85
2022/06/20 00:58:09;;;;;;;5.43;1.67;;;14.10;99.90;;;;;;4933900;29;20212;-79
2022/06/20 01:00:39;;;;;;;7.60;1.83;;;14.20;99.90;;;;;;4951842;29;20197;-85
2022/06/20 01:03:13;;;;;;;5.13;1.73;;;14.10;99.90;;;;;;4952829;29;20203;-87
2022/06/20 01:05:46;;;;;;;5.07;1.48;;;14.10;99.90;;;;;;4951706;28;20208;-80
2022/06/20 01:08:18;;;;;;;4.63;1.40;;;14.10;99.90;;;;;;4933935;29;20210;-78
2022/06/20 01:10:50;;;;;;;4.53;1.70;;;14.00;99.90;;;;;;4933143;29;20792;-87
2022/06/20 01:13:20;;;;;;;7.23;1.77;;;14.00;99.90;;;;;;4932332;29;20222;-84
2022/06/20 01:15:48;;;;;;;4.30;1.48;;;13.90;99.90;;;;;;4932139;29;20274;-86
2022/06/20 01:18:18;;;;;;;4.25;1.45;;;13.90;99.90;;;;;;4931473;29;20198;-83
2022/06/20 01:20:47;;;;;;;3.20;1.70;;;13.90;99.90;;;;;;4937621;29;20224;-84
2022/06/20 01:23:27;;;;;;;10.00;1.77;;;13.90;99.90;;;;;;4950256;29;20201;-83
2022/06/20 01:26:28;;;;;;;5.07;2.10;;;13.80;99.90;;;;;;4950790;29;20207;-78
2022/06/20 01:29:01;;;;;;;3.42;1.35;;;13.80;99.90;;;;;;4935409;28;20301;-86
2022/06/20 01:31:31;;;;;;;3.75;1.25;;;13.70;99.90;;;;;;4931498;29;20202;-79
2022/06/20 01:34:01;;;;;;;6.40;1.47;;;13.70;99.90;;;;;;4930659;29;20209;-79
2022/06/20 01:39:15;;;;;;;4.77;1.67;;;13.70;99.90;;;;;;4932216;29;20518;-77
2022/06/20 01:44:31;;;;;;;4.05;1.48;;;13.60;99.90;;;;;;4946159;29;20203;-85
2022/06/20 01:46:58;;;;;;;5.77;1.60;;;13.60;99.90;;;;;;4951783;29;20197;-85
2022/06/20 01:49:26;;;;;;;3.87;1.23;;;13.50;99.90;;;;;;4950656;29;20201;-81
2022/06/20 01:51:56;;;;;;;2.73;1.23;;;13.50;99.90;;;;;;4950925;29;20225;-83
2022/06/20 01:54:26;;;;;;;5.67;2.07;;;13.50;99.90;;;;;;4933594;29;20221;-84
2022/06/20 01:56:54;;;;;;;2.72;1.30;;;13.50;99.90;;;;;;4929610;29;20283;-86
2022/06/20 01:59:26;;;;;;;3.80;1.50;;;13.40;99.90;;;;;;4933727;29;20293;-86
2022/06/20 02:01:54;;;;;;;5.70;1.93;;;13.40;99.90;;;;;;4953170;29;20197;-86
2022/06/20 02:04:31;;;;;;;5.23;1.60;;;13.30;99.90;;;;;;4954263;28;20312;-85
2022/06/20 02:07:00;;;;;;;3.40;1.57;;;13.30;99.90;;;;;;4952474;29;20207;-86
2022/06/20 02:09:27;;;;;;;3.67;1.30;;;13.20;99.90;;;;;;4952125;29;20505;-86
2022/06/20 02:11:53;;;;;;;4.70;1.80;;;13.20;99.90;;;;;;4952335;29;20252;-87
2022/06/20 02:14:24;;;;;;;5.57;1.60;;;13.10;99.90;;;;;;4951530;29;20205;-80
2022/06/20 02:16:57;;;;;;;4.63;1.50;;;13.10;99.90;;;;;;4953667;28;20220;-86
2022/06/20 02:19:30;;;;;;;4.27;1.60;;;13.10;99.90;;;;;;4936797;29;20194;-78
2022/06/20 02:21:59;;;;;;;6.07;2.23;;;13.00;99.90;;;;;;4937599;29;20208;-86
2022/06/20 02:24:32;;;;;;;4.97;1.80;;;13.00;99.90;;;;;;4955567;29;20947;-83
2022/06/20 02:27:02;;;;;;;6.13;1.80;;;13.00;99.90;;;;;;4956016;29;20202;-81
2022/06/20 02:29:31;;;;;;;5.93;2.10;;;13.00;99.90;;;;;;4945138;29;20212;-78
2022/06/20 02:32:03;;;;;;;8.93;1.83;;;13.00;99.90;;;;;;4936087;29;20237;-78
2022/06/20 02:34:31;;;;;;;4.73;1.50;;;12.90;99.90;;;;;;4936782;29;21045;-84
2022/06/20 02:37:02;;;;;;;7.13;2.03;;;12.90;99.90;;;;;;4936131;29;20209;-81
2022/06/20 02:39:30;;;;;;;4.10;1.47;;;12.80;99.90;;;;;;4935280;29;20202;-82
2022/06/20 02:42:04;;;;;;;4.30;1.80;;;12.80;99.90;;;;;;4936297;29;20210;-87
2022/06/20 02:44:32;;;;;;;4.07;1.83;;;12.80;99.90;;;;;;4934726;29;20246;-79
2022/06/20 02:47:04;;;;;;;4.67;1.90;;;12.70;99.90;;;;;;4934384;29;20212;-78
2022/06/20 02:49:33;;;;;;;3.90;1.57;;;12.70;99.90;;;;;;4934478;29;20220;-86
2022/06/20 02:52:02;;;;;;;4.73;1.70;;;12.60;99.90;;;;;;4934385;29;20669;-85
2022/06/20 02:54:32;;;;;;;5.03;1.87;;;12.60;99.90;;;;;;4935310;29;20209;-84
2022/06/20 02:57:08;;;;;;;5.53;1.77;;;12.60;99.90;;;;;;4934578;29;20202;-80
2022/06/20 02:59:41;;;;;;;2.33;1.50;;;12.60;99.90;;;;;;4934995;29;20244;-83
2022/06/20 03:02:11;;;;;;;3.43;1.30;;;12.50;99.90;;;;;;4934654;29;21085;-84
2022/06/20 03:04:41;;;;;;;4.73;1.87;;;12.50;99.90;;;;;;4934219;29;20226;-80
2022/06/20 03:07:13;;;;;;;3.67;1.80;;;12.40;99.90;;;;;;4934646;29;20864;-80
2022/06/20 03:09:42;;;;;;;8.43;2.47;;;12.40;99.90;;;;;;4935283;29;20205;-85
2022/06/20 03:12:10;;;;;;;4.07;2.13;;;12.40;99.90;;;;;;4934857;29;20256;-86
2022/06/20 03:14:40;;;;;;;5.73;1.83;;;12.40;99.90;;;;;;4947182;29;20713;-78
2022/06/20 03:17:10;;;;;;;4.07;1.80;;;12.40;99.90;;;;;;4955695;29;20280;-86
2022/06/20 03:19:40;;;;;;;4.83;2.20;;;12.30;99.90;;;;;;4951608;29;20205;-87
2022/06/20 03:22:10;;;;;;;5.43;2.17;;;12.30;99.90;;;;;;4936599;29;20232;-84
2022/06/20 03:24:38;;;;;;;3.77;1.90;;;12.30;99.90;;;;;;4936186;29;20617;-76
2022/06/20 03:27:07;;;;;;;6.77;2.50;;;12.30;99.90;;;;;;4934671;29;20205;-86
2022/06/20 03:29:38;;;;;;;5.03;2.03;;;12.20;99.90;;;;;;4935886;29;20209;-85
2022/06/20 03:32:05;;;;;;;5.53;2.00;;;12.20;99.90;;;;;;4933542;29;20206;-86
2022/06/20 03:34:34;;;;;;;5.23;2.20;;;12.20;99.90;;;;;;4935969;29;20210;-86
2022/06/20 03:37:02;;;;;;;7.87;2.73;;;12.20;99.90;;;;;;4936531;29;20245;-82
2022/06/20 03:39:30;;;;;;;4.40;2.30;;;12.20;99.90;;;;;;4936335;29;20216;-87
2022/06/20 03:41:58;;;;;;;7.47;2.87;;;12.20;99.90;;;;;;4947839;29;20201;-87
2022/06/20 03:44:30;;;;;;;5.93;2.50;;;12.20;99.90;;;;;;4954953;29;20205;-86
2022/06/20 03:47:03;;;;;;;6.70;2.70;;;12.20;99.90;;;;;;4955014;29;20189;-86
2022/06/20 03:49:37;;;;;;;6.97;2.53;;;12.20;99.90;;;;;;4955330;29;20197;-88
2022/06/20 03:52:11;;;;;;;6.07;2.70;;;12.20;99.90;;;;;;4935458;29;20212;-88
2022/06/20 03:54:42;;;;;;;6.33;2.67;;;12.20;99.90;;;;;;4934365;29;20288;-86
2022/06/20 03:57:13;;;;;;;8.53;3.17;;;12.20;99.90;;;;;;4934716;29;20718;-83
2022/06/20 03:59:44;;;;;;;9.73;3.20;;;12.20;99.90;;;;;;4933798;29;20941;-84
2022/06/20 04:02:17;;;;;;;6.73;3.37;;;12.40;99.90;;;;;;4934023;29;20300;-84
2022/06/20 04:04:52;;;;;;;7.77;2.77;;;12.40;99.90;;;;;;4935237;29;20230;-83
2022/06/20 04:07:22;;;;;;;8.90;3.10;;;12.40;99.90;;;;;;4934871;29;20225;-79
2022/06/20 04:12:46;;;;;;;7.67;2.93;;;12.50;99.90;;;;;;4932391;29;20289;-78
2022/06/20 04:15:16;;;;;;;6.23;3.10;;;12.50;99.90;;;;;;4932777;29;20591;-84
2022/06/20 04:20:42;;;;;;;10.37;3.60;;;12.70;99.90;;;;;;4933161;29;20202;-79
2022/06/20 04:23:14;;;;;;;12.07;3.80;;;12.80;99.90;;;;;;4933069;29;20206;-78
2022/06/20 04:25:46;;;;;;;9.87;3.60;;;13.00;99.90;;;;;;4934574;29;20221;-86
2022/06/20 04:28:20;;;;;;;10.17;3.60;;;13.10;99.90;;;;;;4934657;29;20579;-87
2022/06/20 04:30:51;;;;;;;8.73;3.40;;;13.20;99.90;;;;;;4935031;29;20677;-83
2022/06/20 04:33:26;;;;;;;7.73;3.07;;;13.30;99.90;;;;;;4934955;29;20225;-85
2022/06/20 04:36:06;;;;;;;8.77;3.43;;;13.40;99.90;;;;;;4934870;29;20202;-86
2022/06/20 04:38:39;;;;;;;7.00;3.30;;;13.50;99.90;;;;;;4933988;29;20217;-87
2022/06/20 04:41:13;;;;;;;10.33;4.00;;;13.50;99.90;;;;;;4934181;29;20202;-81
2022/06/20 04:43:44;;;;;;;14.10;3.87;;;13.60;99.90;;;;;;4935221;29;20217;-84
2022/06/20 04:46:18;;;;;;;6.00;3.60;;;13.70;99.90;;;;;;4960670;29;20589;-80
2022/06/20 04:48:46;;;;;;;10.85;3.47;;;13.80;99.90;;;;;;4961191;29;20224;-85
2022/06/20 04:51:19;;;;;;;12.87;4.03;;;13.90;99.90;;;;;;4961852;28;20208;-86
2022/06/20 04:53:49;;;;;;;9.02;4.25;;;14.00;99.90;;;;;;4954613;29;20233;-80
2022/06/20 04:56:25;;;;;;;14.20;4.33;;;14.20;99.90;;;;;;4937300;29;20205;-87
2022/06/20 04:58:55;;;;;;;14.93;3.83;;;14.30;99.90;;;;;;4947825;28;20254;-85
2022/06/20 05:01:22;;;;;;;13.50;4.45;;;14.50;99.90;;;;;;4954496;29;20209;-83
2022/06/20 05:03:55;;;;;;;8.43;3.43;;;14.60;99.90;;;;;;4934002;29;20257;-81
2022/06/20 05:06:27;;;;;;;7.15;3.30;;;14.80;99.90;;;;;;4932839;29;20630;-84
2022/06/20 05:08:56;;;;;;;9.73;3.45;;;15.00;99.90;;;;;;4933360;29;20201;-88
2022/06/20 05:11:28;;;;;;;9.60;3.20;;;15.20;99.90;;;;;;4939934;29;20213;-79
2022/06/20 05:14:01;;;;;;;7.88;2.83;;;15.50;99.90;;;;;;4953652;29;20248;-87
2022/06/20 05:16:33;;;;;;;9.35;3.10;;;15.70;99.90;;;;;;4953351;29;20228;-85
2022/06/20 05:19:07;;;;;;;10.77;2.92;;;15.90;99.90;;;;;;4953315;29;20206;-87
2022/06/20 05:21:43;;;;;;;7.35;2.92;;;16.20;99.90;;;;;;4934543;29;20236;-84
2022/06/20 05:24:14;;;;;;;7.53;2.80;;;16.50;99.90;;;;;;4933034;29;20202;-84
2022/06/20 05:26:43;;;;;;;10.43;2.90;;;16.90;99.90;;;;;;4934119;29;20197;-87
2022/06/20 05:29:15;;;;;;;10.05;3.08;;;17.30;99.90;;;;;;4933671;29;20209;-88
2022/06/20 05:31:45;;;;;;;8.70;2.95;;;17.60;99.90;;;;;;4933371;29;20194;-85
2022/06/20 05:34:19;;;;;;;9.73;3.58;;;17.80;99.90;;;;;;4933449;29;20278;-87
2022/06/20 05:36:54;;;;;;;9.38;2.92;;;18.00;99.90;;;;;;4933794;29;20285;-87
2022/06/20 05:39:25;;;;;;;7.50;2.70;;;18.30;99.90;;;;;;4932015;29;20198;-77
2022/06/20 05:41:52;;;;;;;10.32;3.35;;;18.60;99.90;;;;;;4933427;29;20249;-84
2022/06/20 05:44:19;;;;;;;9.25;2.90;;;18.60;99.90;;;;;;4946102;29;20288;-83
2022/06/20 05:46:50;;;;;;;7.47;3.15;;;18.60;99.90;;;;;;4952084;28;20847;-86
2022/06/20 05:49:21;;;;;;;7.72;2.60;;;18.70;99.90;;;;;;4937572;29;20225;-84
2022/06/20 05:51:50;;;;;;;8.75;3.20;;;19.00;99.90;;;;;;4934865;29;20869;-84
2022/06/20 05:54:22;;;;;;;7.15;2.88;;;19.40;99.90;;;;;;4936526;29;20563;-85
2022/06/20 05:56:52;;;;;;;7.97;3.03;;;19.80;99.90;;;;;;4937535;29;20261;-81
2022/06/20 05:59:38;;;;;;;6.45;2.55;;;19.80;99.90;;;;;;4935734;29;20528;-86
2022/06/20 06:02:18;;;;;;;8.93;2.53;;;19.90;99.90;;;;;;4936050;29;20215;-83
2022/06/20 06:04:49;;;;;;;8.32;2.53;;;20.10;99.90;;;;;;4938104;29;20244;-82
2022/06/20 06:07:22;;;;;;;7.07;2.72;;;20.10;99.90;;;;;;4954174;29;20818;-83
2022/06/20 06:09:55;;;;;;;7.82;2.47;;;20.20;99.90;;;;;;4954704;29;20257;-83
2022/06/20 06:12:30;;;;;;;6.75;2.53;;;20.30;99.90;;;;;;4954644;29;20197;-79
2022/06/20 06:15:05;;;;;;;8.90;2.70;;;20.30;99.90;;;;;;4953345;29;20235;-82
2022/06/20 06:17:40;;;;;;;7.07;2.47;;;20.40;99.90;;;;;;4954452;28;20263;-83
2022/06/20 06:20:13;;;;;;;12.27;3.00;;;20.40;99.90;;;;;;4937830;29;20194;-81
2022/06/20 06:22:44;;;;;;;7.25;2.50;;;20.70;99.90;;;;;;4935283;29;20292;-85
2022/06/20 06:25:22;;;;;;;7.95;3.03;;;20.60;99.90;;;;;;4935694;29;20555;-85
2022/06/20 06:27:51;;;;;;;8.90;2.50;;;20.70;99.90;;;;;;4935285;29;20205;-83
2022/06/20 06:30:21;;;;;;;11.63;3.10;;;20.80;99.90;;;;;;4933853;29;20221;-85
2022/06/20 06:32:53;;;;;;;10.35;2.70;;;20.60;99.90;;;;;;4955413;29;20328;-84
2022/06/20 06:35:26;;;;;;;7.32;2.20;;;20.60;99.90;;;;;;4956370;29;20502;-80
2022/06/20 06:37:58;;;;;;;7.03;2.33;;;20.70;99.90;;;;;;4956380;29;20562;-78
2022/06/20 06:40:32;;;;;;;6.53;2.33;;;20.90;99.90;;;;;;4961523;29;20257;-84
2022/06/20 06:42:59;;;;;;;7.38;2.20;;;21.10;99.90;;;;;;4960892;29;20201;-82
2022/06/20 06:45:30;;;;;;;5.00;2.22;;;21.20;99.90;;;;;;4941021;29;20241;-85
2022/06/20 06:48:05;;;;;;;6.13;2.28;;;21.10;99.90;;;;;;4934492;29;20274;-84
2022/06/20 06:50:37;;;;;;;10.05;2.38;;;21.20;99.90;;;;;;4934183;29;20213;-84
2022/06/20 06:53:40;;;;;;;5.20;2.50;;;21.20;99.90;;;;;;4936011;29;20241;-86
2022/06/20 06:56:16;;;;;;;5.50;2.15;;;21.00;99.90;;;;;;4940288;29;20261;-84
2022/06/20 06:58:50;;;;;;;7.80;2.20;;;21.20;99.90;;;;;;4938730;29;20253;-84
2022/06/20 07:01:21;;;;;;;6.93;2.50;;;21.40;99.90;;;;;;4935666;29;20198;-81
2022/06/20 07:03:52;;;;;;;6.68;2.55;;;21.00;99.90;;;;;;4933797;29;20238;-81
2022/06/20 07:06:25;;;;;;;7.90;2.40;;;21.20;99.90;;;;;;4935268;29;20257;-85
2022/06/20 07:08:58;;;;;;;3.65;2.17;;;21.20;99.90;;;;;;4933716;29;20226;-83
2022/06/20 07:11:26;;;;;;;5.47;1.98;;;21.60;99.90;;;;;;4931518;29;20222;-77
2022/06/20 07:14:01;;;;;;;7.07;2.67;;;21.80;99.90;;;;;;4933437;29;20875;-83
2022/06/20 07:16:35;;;;;;;4.38;2.22;;;22.00;99.90;;;;;;4935683;29;20213;-80
2022/06/20 07:19:06;;;;;;;19.30;4.32;;;22.20;99.90;;;;;;4935118;29;20197;-83
2022/06/20 07:21:34;;;;;;;6.45;2.35;;;22.30;99.90;;;;;;4933731;29;20204;-83
2022/06/20 07:24:06;;;;;;;6.90;2.38;;;22.20;99.90;;;;;;4933909;29;20306;-78
2022/06/20 07:26:39;;;;;;;6.22;2.15;;;22.30;99.90;;;;;;4933590;29;20748;-86
2022/06/20 07:29:13;;;;;;;6.03;1.80;;;22.70;99.90;;;;;;4933887;29;20202;-84
2022/06/20 07:31:42;;;;;;;6.72;2.90;;;22.80;99.90;;;;;;4933841;29;20206;-86
2022/06/20 07:34:13;;;;;;;7.03;2.08;;;23.10;99.90;;;;;;4933270;29;20233;-82
2022/06/20 07:36:44;;;;;;;7.57;2.50;;;23.30;99.90;;;;;;4933749;29;20216;-86
2022/06/20 07:39:19;;;;;;;3.58;1.80;;;23.50;99.90;;;;;;4933215;29;20598;-82
2022/06/20 07:41:50;;;;;;;5.38;2.15;;;23.50;99.90;;;;;;4932635;29;20268;-83
2022/06/20 07:44:23;;;;;;;5.15;2.15;;;23.40;99.90;;;;;;4933018;29;20643;-83
2022/06/20 07:46:57;;;;;;;5.13;2.35;;;23.40;99.90;;;;;;4941929;23;20409;-79
2022/06/20 07:49:29;;;;;;;7.15;2.67;;;23.30;99.90;;;;;;4932242;29;20205;-85
2022/06/20 07:52:01;;;;;;;3.67;1.80;;;23.00;99.90;;;;;;4933674;29;20198;-79
2022/06/20 07:54:34;;;;;;;5.15;2.30;;;23.00;99.90;;;;;;4933373;29;20658;-84
2022/06/20 07:57:05;;;;;;;4.40;1.95;;;23.00;99.90;;;;;;4933774;29;20204;-86
2022/06/20 07:59:37;;;;;;;5.32;1.90;;;23.20;99.90;;;;;;4933219;29;20206;-83
2022/06/20 08:02:08;;;;;;;8.95;2.10;;;23.30;99.90;;;;;;4932361;29;20213;-83
2022/06/20 08:04:38;;;;;;;4.88;1.98;;;23.40;99.90;;;;;;4920801;29;20242;-85
2022/06/20 08:07:09;;;;;;;8.50;2.33;;;23.60;99.90;;;;;;4915192;29;20210;-87
2022/06/20 08:09:44;;;;;;;4.40;1.90;;;23.50;99.90;;;;;;4901605;29;20213;-83
2022/06/20 08:12:17;;;;;;;6.88;2.13;;;23.40;99.90;;;;;;4896107;29;20285;-80
2022/06/20 08:14:50;;;;;;;4.10;2.00;;;23.60;99.90;;;;;;4903573;29;20941;-85
2022/06/20 08:17:18;;;;;;;6.15;2.00;;;23.50;99.90;;;;;;4914965;29;20210;-85
2022/06/20 08:19:46;;;;;;;8.55;2.35;;;23.40;99.90;;;;;;4912683;29;20644;-87
2022/06/20 08:22:21;;;;;;;4.13;1.88;;;23.60;99.90;;;;;;4913622;29;20259;-85
2022/06/20 08:24:55;;;;;;;5.57;2.15;;;23.80;99.90;;;;;;4914140;29;20198;-83
2022/06/20 08:27:31;;;;;;;6.82;2.10;;;23.70;99.90;;;;;;4912827;29;20589;-79
2022/06/20 08:30:11;;;;;;;7.25;2.40;;;23.50;99.90;;;;;;4911623;29;20833;-86
2022/06/20 08:32:47;;;;;;;4.85;2.03;;;23.20;99.90;;;;;;4915356;29;20194;-88
2022/06/20 08:35:20;;;;;;;7.88;2.75;;;23.30;99.90;;;;;;4914400;29;20229;-82
2022/06/20 08:37:51;;;;;;;7.88;2.50;;;22.90;99.90;;;;;;4914685;29;20206;-83
2022/06/20 08:40:42;;;;;;;6.03;2.25;;;22.30;99.90;;;;;;4914053;29;20290;-84
2022/06/20 08:43:37;;;;;;;8.43;2.10;;;21.90;99.90;;;;;;4913813;29;20572;-87
2022/06/20 08:46:21;;;;;;;8.55;2.30;;;22.10;99.90;;;;;;4914075;29;20803;-86
2022/06/20 08:49:19;;;;;;;7.90;2.42;;;22.00;99.90;;;;;;4913506;29;20241;-87
2022/06/20 08:52:22;;;;;;;7.03;1.92;;;22.10;99.90;;;;;;4913277;29;20218;-86
2022/06/20 08:55:28;;;;;;;5.85;1.83;;;22.20;99.90;;;;;;4914954;29;20270;-87
2022/06/20 08:58:07;;;;;;;6.43;2.17;;;22.30;99.90;;;;;;4894671;29;20196;-83
2022/06/20 09:00:43;;;;;;;4.13;2.22;;;22.40;99.90;;;;;;4895832;29;20207;-86
2022/06/20 09:03:36;;;;;;;6.40;1.80;;;22.60;99.90;;;;;;4907036;29;20969;-83
2022/06/20 09:06:18;;;;;;;5.38;2.00;;;23.00;99.90;;;;;;4913907;29;20270;-80
2022/06/20 09:09:10;;;;;;;7.18;2.10;;;23.10;99.90;;;;;;4904635;29;20275;-81
2022/06/20 09:11:54;;;;;;;8.55;2.45;;;23.30;99.90;;;;;;4892635;29;20207;-84
2022/06/20 09:14:45;;;;;;;6.25;2.72;;;22.80;99.90;;;;;;4894824;29;20559;-84
2022/06/20 09:17:19;;;;;;;6.25;2.10;;;22.80;99.90;;;;;;4896013;29;20664;-86
2022/06/20 09:20:06;;;;;;;6.30;2.22;;;22.60;99.90;;;;;;4912335;29;20195;-86
2022/06/20 09:22:48;;;;;;;5.68;2.00;;;22.50;99.90;;;;;;4915537;29;20195;-87
2022/06/20 09:25:30;;;;;;;8.23;2.28;;;22.20;99.90;;;;;;4911657;29;20856;-88
2022/06/20 09:28:13;;;;;;;6.72;2.17;;;22.10;99.90;;;;;;4915422;29;20205;-88
2022/06/20 09:30:54;;;;;;;8.25;2.33;;;22.00;99.90;;;;;;4914978;29;20226;-88
2022/06/20 09:33:56;;;;;;;4.75;1.88;;;21.80;99.90;;;;;;4914508;29;20198;-86
2022/06/20 09:36:46;;;;;;;5.43;2.15;;;21.80;99.90;;;;;;4894696;29;20212;-81
2022/06/20 09:39:25;;;;;;;5.60;1.90;;;22.00;99.90;;;;;;4908806;29;20214;-85
2022/06/20 09:42:01;;;;;;;5.25;2.08;;;21.90;99.90;;;;;;4914285;29;20202;-87
2022/06/20 09:44:36;;;;;;;3.92;1.73;;;22.20;99.90;;;;;;4912894;29;20806;-84
2022/06/20 09:47:12;;;;;;;6.28;2.20;;;22.60;99.90;;;;;;4912004;29;20225;-84
2022/06/20 09:49:47;;;;;;;6.10;1.80;;;23.00;99.90;;;;;;4913028;29;20540;-85
2022/06/20 09:52:21;;;;;;;6.88;2.00;;;23.20;99.90;;;;;;4912378;29;20198;-81
2022/06/20 09:54:57;;;;;;;7.20;2.30;;;23.30;99.90;;;;;;4912373;29;20305;-88
2022/06/20 09:57:45;;;;;;;5.15;1.92;;;23.30;99.90;;;;;;4912189;29;20602;-80
2022/06/20 10:00:19;;;;;;;7.85;2.25;;;23.30;99.90;;;;;;4912848;29;21055;-86
2022/06/20 10:02:57;;;;;;;9.75;2.33;;;23.30;99.90;;;;;;4913185;29;20191;-83
2022/06/20 10:05:36;;;;;;;7.35;1.90;;;23.10;99.90;;;;;;4911866;29;20233;-83
2022/06/20 10:08:14;;;;;;;4.32;2.00;;;23.20;99.90;;;;;;4891906;29;20206;-86
2022/06/20 10:10:48;;;;;;;4.03;1.98;;;23.10;99.90;;;;;;4893082;29;20295;-88
2022/06/20 10:13:22;;;;;;;6.22;2.15;;;23.00;99.90;;;;;;4895143;29;20223;-89
2022/06/20 10:15:55;;;;;;;6.50;2.65;;;22.60;99.90;;;;;;4900093;29;20220;-83
2022/06/20 10:18:32;;;;;;;7.70;2.10;;;22.70;99.90;;;;;;4915164;29;20245;-90
2022/06/20 10:21:05;;;;;;;6.70;2.42;;;22.50;99.90;;;;;;4913496;29;20241;-84
2022/06/20 10:23:56;;;;;;;8.60;2.88;;;22.20;99.90;;;;;;4913764;29;20199;-87
2022/06/20 10:26:34;;;;;;;8.13;2.83;;;22.20;99.90;;;;;;4913462;29;20213;-83
2022/06/20 10:29:10;;;;;;;5.22;2.10;;;22.20;99.90;;;;;;4913639;29;20225;-88
2022/06/20 10:31:42;;;;;;;6.03;2.40;;;22.20;99.90;;;;;;4914797;29;20195;-87
2022/06/20 10:34:32;;;;;;;6.38;2.50;;;22.00;99.90;;;;;;4913090;29;20290;-86
2022/06/20 10:37:05;;;;;;;8.07;2.47;;;22.00;99.90;;;;;;4914676;29;20203;-88
2022/06/20 10:39:46;;;;;;;7.80;3.10;;;22.00;99.90;;;;;;4919134;29;20580;-85
2022/06/20 10:42:25;;;;;;;9.23;2.95;;;22.10;99.90;;;;;;4916967;29;20214;-86
2022/06/20 10:45:11;;;;;;;6.38;2.20;;;22.50;99.90;;;;;;4917460;29;20198;-85
2022/06/20 10:47:48;;;;;;;8.38;2.80;;;22.50;99.90;;;;;;4917032;29;20261;-84
2022/06/20 10:50:33;;;;;;;10.02;2.83;;;22.40;99.90;;;;;;4917074;29;20464;-85
2022/06/20 10:53:19;;;;;;;9.43;2.90;;;22.00;99.90;;;;;;4916616;29;20648;-86
2022/06/20 10:55:52;;;;;;;8.88;2.65;;;22.10;99.90;;;;;;4916946;29;20293;-87
2022/06/20 10:58:42;;;;;;;12.32;3.08;;;21.90;99.90;;;;;;4897382;29;20373;-81
2022/06/20 11:01:17;;;;;;;7.22;2.47;;;22.20;99.90;;;;;;4897425;29;20745;-86
2022/06/20 11:04:04;;;;;;;14.98;2.95;;;22.20;99.90;;;;;;4901518;29;20249;-85
2022/06/20 11:06:48;;;;;;;7.15;2.72;;;22.00;99.90;;;;;;4926043;29;20195;-84
2022/06/20 11:09:23;;;;;;;9.70;2.88;;;21.90;99.90;;;;;;4922998;29;20242;-83
2022/06/20 11:12:02;;;;;;;10.35;2.95;;;21.80;99.90;;;;;;4920034;29;20233;-85
2022/06/20 11:14:37;;;;;;;9.50;2.75;;;21.90;99.90;;;;;;4919737;29;20189;-84
2022/06/20 11:17:17;;;;;;;7.93;2.90;;;22.30;99.90;;;;;;4919059;29;20203;-86
2022/06/20 11:19:53;;;;;;;8.13;2.50;;;22.10;99.90;;;;;;4917030;29;20202;-87
2022/06/20 11:22:30;;;;;;;6.60;2.15;;;21.80;99.90;;;;;;4906957;29;20199;-87
2022/06/20 11:25:05;;;;;;;4.78;1.83;;;21.60;99.90;;;;;;4896137;29;20361;-85
2022/06/20 11:27:52;;;;;;;5.75;2.10;;;21.50;99.90;;;;;;4897345;29;20560;-84
2022/06/20 11:30:23;;;;;;;8.07;2.53;;;21.50;99.90;;;;;;4895805;29;20238;-81
2022/06/20 11:33:02;;;;;;;5.20;1.88;;;21.70;99.90;;;;;;4912557;29;20210;-83
2022/06/20 11:35:38;;;;;;;7.85;2.72;;;22.00;99.90;;;;;;4914373;29;21049;-86
2022/06/20 11:38:26;;;;;;;7.72;2.38;;;22.00;99.90;;;;;;4914130;29;20309;-83
2022/06/20 11:41:01;;;;;;;5.25;2.00;;;22.10;99.90;;;;;;4913985;29;20277;-85
2022/06/20 11:43:53;;;;;;;5.90;2.25;;;22.10;99.90;;;;;;4914531;29;20635;-86
2022/06/20 11:46:45;;;;;;;8.85;2.00;;;21.80;99.90;;;;;;4913614;29;20198;-86
2022/06/20 11:49:27;;;;;;;4.38;1.80;;;21.50;99.90;;;;;;4908485;29;20595;-85
2022/06/20 11:52:01;;;;;;;7.03;1.77;;;21.50;99.90;;;;;;4913326;29;20238;-86
2022/06/20 11:54:37;;;;;;;7.85;1.90;;;21.80;99.90;;;;;;4907683;29;20218;-82
2022/06/20 11:57:22;;;;;;;5.22;1.77;;;21.90;99.90;;;;;;4911282;29;20332;-87
2022/06/20 11:59:55;;;;;;;6.18;1.63;;;22.10;99.90;;;;;;4914470;29;20298;-86
2022/06/20 12:02:35;;;;;;;4.65;1.60;;;22.30;99.90;;;;;;4914806;29;20222;-84
2022/06/20 12:05:26;;;;;;;5.05;1.98;;;22.20;99.90;;;;;;4913583;29;20238;-86
2022/06/20 12:08:01;;;;;;;4.93;1.60;;;21.90;99.90;;;;;;4914551;29;20210;-87
2022/06/20 12:10:38;;;;;;;6.72;2.00;;;21.60;99.90;;;;;;4915095;29;20202;-86
2022/06/20 12:13:21;;;;;;;6.95;1.85;;;21.70;99.90;;;;;;4898375;29;20215;-86
2022/06/20 12:15:55;;;;;;;6.68;1.85;;;21.80;99.90;;;;;;4913854;29;20234;-83
2022/06/20 12:24:25;;;;;;;5.35;1.50;;;21.70;99.90;;;;;;4912848;29;20237;-86
2022/06/20 12:26:54;;;;;;;6.72;1.90;;;21.80;99.90;;;;;;4915092;29;20777;-85
2022/06/20 12:29:24;;;;;;;9.18;2.25;;;21.80;99.90;;;;;;4913953;29;20223;-83
2022/06/20 12:31:54;;;;;;;5.53;1.88;;;22.00;99.90;;;;;;4915039;29;20215;-86
2022/06/20 12:34:41;;;;;;;3.85;1.50;;;22.00;99.90;;;;;;4914774;29;20214;-85
2022/06/20 12:37:17;;;;;;;6.90;1.67;;;22.00;99.90;;;;;;4914824;29;20218;-87
2022/06/20 12:39:49;;;;;;;6.72;1.63;;;21.90;99.90;;;;;;4908522;29;20537;-83
2022/06/20 12:42:26;;;;;;;5.65;1.67;;;21.70;99.90;;;;;;4914094;29;20527;-85
2022/06/20 12:45:02;;;;;;;5.90;2.08;;;21.70;99.90;;;;;;4914084;29;20213;-86
2022/06/20 12:47:57;;;;;;;6.78;2.30;;;21.80;99.90;;;;;;4911747;29;20272;-87
2022/06/20 12:50:27;;;;;;;5.22;1.60;;;21.90;99.90;;;;;;4899747;29;20226;-85
2022/06/20 12:53:18;;;;;;;4.25;1.95;;;22.00;99.90;;;;;;4895737;29;20211;-86
2022/06/20 12:55:56;;;;;;;6.10;1.77;;;22.30;99.90;;;;;;4912360;29;20286;-88
2022/06/20 12:58:48;;;;;;;6.22;2.15;;;22.30;99.90;;;;;;4913880;29;20285;-84
2022/06/20 13:01:21;;;;;;;8.23;1.90;;;22.00;99.90;;;;;;4912550;29;20751;-85
2022/06/20 13:04:29;;;;;;;5.13;1.90;;;21.80;99.90;;;;;;4912856;29;20663;-85
2022/06/20 13:07:10;;;;;;;5.40;1.92;;;21.90;99.90;;;;;;4887045;29;20220;-87
2022/06/20 13:10:06;;;;;;;9.38;2.65;;;21.90;99.90;;;;;;4913389;29;20245;-88
2022/06/20 13:12:45;;;;;;;6.40;1.88;;;21.90;99.90;;;;;;4913168;29;20218;-81
2022/06/20 13:15:38;;;;;;;8.95;2.17;;;21.70;99.90;;;;;;4913583;29;20273;-82
2022/06/20 13:18:25;;;;;;;4.93;1.80;;;21.70;99.90;;;;;;4911730;29;20218;-87
2022/06/20 13:20:59;;;;;;;4.75;1.85;;;21.70;99.90;;;;;;4913162;29;20206;-84
2022/06/20 13:23:45;;;;;;;7.10;1.98;;;21.90;99.90;;;;;;4913368;29;20201;-87
2022/06/20 13:26:21;;;;;;;6.00;1.98;;;22.00;99.90;;;;;;4937502;23;20240;-84
2022/06/20 13:28:58;;;;;;;5.85;2.25;;;21.90;99.90;;;;;;4969990;28;20200;-84
2022/06/20 13:31:32;;;;;;;7.65;2.40;;;21.90;99.90;;;;;;4969770;28;20866;-86
2022/06/20 13:34:07;;;;;;;6.60;2.25;;;21.90;99.90;;;;;;4958554;28;20201;-85
2022/06/20 13:36:46;;;;;;;5.88;2.10;;;21.70;99.90;;;;;;4949121;28;20220;-82
2022/06/20 13:39:24;;;;;;;4.43;2.05;;;21.40;99.90;;;;;;4959622;28;20245;-85
2022/06/20 13:41:54;;;;;;;6.82;1.95;;;21.60;99.90;;;;;;4972035;28;20295;-85